sensor_id;sensor_type;location;lat;lon;timestamp;temperature;humidity
47540;DHT22;33280;52.152;21.052;2023-07-16T00:00:26;22.70;99.90
47540;DHT22;33280;52.152;21.052;2023-07-16T00:02:53;22.70;99.90
47540;DHT22;33280;52.152;21.052;2023-07-16T00:05:21;22.70;99.90
47540;DHT22;33280;52.152;21.052;2023-07-16T00:07:48;22.70;99.90
47540;DHT22;33280;52.152;21.052;2023-07-16T00:10:15;22.70;99.90
47540;DHT22;33280;52.152;21.052;2023-07-16T00:12:42;22.60;99.90
47540;DHT22;33280;52.152;21.052;2023-07-16T00:15:09;22.60;99.90
47540;DHT22;33280;52.152;21.052;2023-07-16T00:17:36;22.50;99.90
47540;DHT22;33280;52.152;21.052;2023-07-16T00:20:04;22.50;99.90
47540;DHT22;33280;52.152;21.052;2023-07-16T00:22:56;22.50;99.90
47540;DHT22;33280;52.152;21.052;2023-07-16T00:25:24;22.50;99.90
47540;DHT22;33280;52.152;21.052;2023-07-16T00:27:51;22.50;99.90
47540;DHT22;33280;52.152;21.052;2023-07-16T00:30:18;22.30;99.90
47540;DHT22;33280;52.152;21.052;2023-07-16T00:32:45;22.30;99.90
47540;DHT22;33280;52.152;21.052;2023-07-16T00:35:13;22.20;99.90
47540;DHT22;33280;52.152;21.052;2023-07-16T00:37:41;22.20;99.90
47540;DHT22;33280;52.152;21.052;2023-07-16T00:40:11;22.20;99.90
47540;DHT22;33280;52.152;21.052;2023-07-16T00:42:45;22.10;99.90
47540;DHT22;33280;52.152;21.052;2023-07-16T00:45:31;22.10;99.90
47540;DHT22;33280;52.152;21.052;2023-07-16T00:48:00;22.10;99.90
47540;DHT22;33280;52.152;21.052;2023-07-16T00:50:27;22.20;99.90
47540;DHT22;33280;52.152;21.052;2023-07-16T00:52:55;22.10;99.90
47540;DHT22;33280;52.152;21.052;2023-07-16T00:55:22;22.10;99.90
47540;DHT22;33280;52.152;21.052;2023-07-16T00:57:49;22.00;99.90
47540;DHT22;33280;52.152;21.052;2023-07-16T01:00:16;22.00;99.90
47540;DHT22;33280;52.152;21.052;2023-07-16T01:02:43;22.00;99.90
47540;DHT22;33280;52.152;21.052;2023-07-16T01:05:10;22.00;99.90
47540;DHT22;33280;52.152;21.052;2023-07-16T01:07:42;21.90;99.90
47540;DHT22;33280;52.152;21.052;2023-07-16T01:10:36;21.90;99.90
47540;DHT22;33280;52.152;21.052;2023-07-16T01:30:32;21.70;99.90
47540;DHT22;33280;52.152;21.052;2023-07-16T01:33:31;21.50;99.90
47540;DHT22;33280;52.152;21.052;2023-07-16T01:37:28;21.70;99.90
47540;DHT22;33280;52.152;21.052;2023-07-16T01:40:37;21.50;99.90
47540;DHT22;33280;52.152;21.052;2023-07-16T01:44:30;21.40;99.90
47540;DHT22;33280;52.152;21.052;2023-07-16T01:55:37;21.40;99.90
47540;DHT22;33280;52.152;21.052;2023-07-16T02:32:24;20.70;99.90
47540;DHT22;33280;52.152;21.052;2023-07-16T02:48:59;20.50;99.90
47540;DHT22;33280;52.152;21.052;2023-07-16T02:55:44;20.40;99.90
47540;DHT22;33280;52.152;21.052;2023-07-16T02:58:38;20.40;99.90
47540;DHT22;33280;52.152;21.052;2023-07-16T03:01:31;20.30;99.90
47540;DHT22;33280;52.152;21.052;2023-07-16T03:08:40;20.40;99.90
47540;DHT22;33280;52.152;21.052;2023-07-16T03:12:19;20.40;99.90
47540;DHT22;33280;52.152;21.052;2023-07-16T03:15:16;20.20;99.90
47540;DHT22;33280;52.152;21.052;2023-07-16T03:18:03;20.30;99.90
47540;DHT22;33280;52.152;21.052;2023-07-16T03:21:01;20.40;99.90
47540;DHT22;33280;52.152;21.052;2023-07-16T03:24:09;20.40;99.90
47540;DHT22;33280;52.152;21.052;2023-07-16T03:26:55;20.30;99.90
47540;DHT22;33280;52.152;21.052;2023-07-16T03:30:08;20.40;99.90
47540;DHT22;33280;52.152;21.052;2023-07-16T03:33:00;20.40;99.90
47540;DHT22;33280;52.152;21.052;2023-07-16T03:36:06;20.50;99.90
47540;DHT22;33280;52.152;21.052;2023-07-16T03:38:56;20.50;99.90
47540;DHT22;33280;52.152;21.052;2023-07-16T03:42:09;20.60;99.90
47540;DHT22;33280;52.152;21.052;2023-07-16T03:45:01;20.70;99.90
47540;DHT22;33280;52.152;21.052;2023-07-16T03:47:35;20.60;99.90
47540;DHT22;33280;52.152;21.052;2023-07-16T03:50:34;20.70;99.90
47540;DHT22;33280;52.152;21.052;2023-07-16T03:57:43;20.80;99.90
47540;DHT22;33280;52.152;21.052;2023-07-16T04:00:40;20.80;99.90
47540;DHT22;33280;52.152;21.052;2023-07-16T04:03:25;20.90;99.90
47540;DHT22;33280;52.152;21.052;2023-07-16T04:06:37;20.90;99.90
47540;DHT22;33280;52.152;21.052;2023-07-16T04:18:00;21.30;99.90
47540;DHT22;33280;52.152;21.052;2023-07-16T04:35:26;21.70;99.90
47540;DHT22;33280;52.152;21.052;2023-07-16T04:38:32;21.70;99.90
47540;DHT22;33280;52.152;21.052;2023-07-16T04:44:34;21.80;99.90
47540;DHT22;33280;52.152;21.052;2023-07-16T04:47:11;21.90;99.90
47540;DHT22;33280;52.152;21.052;2023-07-16T04:49:39;22.00;99.90
47540;DHT22;33280;52.152;21.052;2023-07-16T04:52:14;21.90;99.90
47540;DHT22;33280;52.152;21.052;2023-07-16T04:54:44;22.00;99.90
47540;DHT22;33280;52.152;21.052;2023-07-16T04:57:15;22.10;99.90
47540;DHT22;33280;52.152;21.052;2023-07-16T04:59:53;22.20;99.90
47540;DHT22;33280;52.152;21.052;2023-07-16T05:02:34;22.30;99.90
47540;DHT22;33280;52.152;21.052;2023-07-16T05:05:36;22.30;99.90
47540;DHT22;33280;52.152;21.052;2023-07-16T05:08:10;22.30;99.90
47540;DHT22;33280;52.152;21.052;2023-07-16T05:10:57;22.50;99.90
47540;DHT22;33280;52.152;21.052;2023-07-16T05:17:05;22.70;99.90
47540;DHT22;33280;52.152;21.052;2023-07-16T05:19:43;22.80;99.90
47540;DHT22;33280;52.152;21.052;2023-07-16T05:22:19;22.90;99.90
47540;DHT22;33280;52.152;21.052;2023-07-16T05:24:58;23.10;99.90
47540;DHT22;33280;52.152;21.052;2023-07-16T05:32:17;23.30;99.90
47540;DHT22;33280;52.152;21.052;2023-07-16T06:47:05;25.80;99.90
47540;DHT22;33280;52.152;21.052;2023-07-16T06:59:02;26.30;99.90
47540;DHT22;33280;52.152;21.052;2023-07-16T07:02:11;26.40;99.90
47540;DHT22;33280;52.152;21.052;2023-07-16T07:36:35;27.80;99.90
47540;DHT22;33280;52.152;21.052;2023-07-16T08:34:18;31.90;99.90
47540;DHT22;33280;52.152;21.052;2023-07-16T08:54:28;34.20;94.60
47540;DHT22;33280;52.152;21.052;2023-07-16T09:57:00;35.00;82.70
47540;DHT22;33280;52.152;21.052;2023-07-16T10:23:42;37.40;72.60
47540;DHT22;33280;52.152;21.052;2023-07-16T10:37:54;36.50;74.20
47540;DHT22;33280;52.152;21.052;2023-07-16T10:40:31;36.70;73.90
47540;DHT22;33280;52.152;21.052;2023-07-16T12:28:03;37.90;77.20
47540;DHT22;33280;52.152;21.052;2023-07-16T12:31:07;38.10;74.40
47540;DHT22;33280;52.152;21.052;2023-07-16T12:56:14;38.90;68.30
47540;DHT22;33280;52.152;21.052;2023-07-16T12:58:42;39.20;66.60
47540;DHT22;33280;52.152;21.052;2023-07-16T13:01:09;39.30;66.20
47540;DHT22;33280;52.152;21.052;2023-07-16T13:03:36;39.60;65.90
47540;DHT22;33280;52.152;21.052;2023-07-16T13:06:03;39.90;63.70
47540;DHT22;33280;52.152;21.052;2023-07-16T13:08:31;39.60;64.10
47540;DHT22;33280;52.152;21.052;2023-07-16T13:10:58;38.80;64.20
47540;DHT22;33280;52.152;21.052;2023-07-16T13:13:25;39.00;64.50
47540;DHT22;33280;52.152;21.052;2023-07-16T13:15:56;39.20;62.30
47540;DHT22;33280;52.152;21.052;2023-07-16T13:21:38;39.70;62.00
47540;DHT22;33280;52.152;21.052;2023-07-16T13:24:16;40.20;61.30
47540;DHT22;33280;52.152;21.052;2023-07-16T13:36:42;40.40;60.90
47540;DHT22;33280;52.152;21.052;2023-07-16T13:40:23;40.90;59.30
47540;DHT22;33280;52.152;21.052;2023-07-16T13:46:21;40.90;59.40
47540;DHT22;33280;52.152;21.052;2023-07-16T13:48:48;40.40;57.90
47540;DHT22;33280;52.152;21.052;2023-07-16T13:51:22;40.20;58.10
47540;DHT22;33280;52.152;21.052;2023-07-16T13:53:57;40.30;59.90
47540;DHT22;33280;52.152;21.052;2023-07-16T13:56:24;39.80;58.00
47540;DHT22;33280;52.152;21.052;2023-07-16T13:58:51;39.30;60.90
47540;DHT22;33280;52.152;21.052;2023-07-16T14:01:22;39.80;60.40
47540;DHT22;33280;52.152;21.052;2023-07-16T14:03:52;40.20;61.50
47540;DHT22;33280;52.152;21.052;2023-07-16T14:06:19;40.10;59.80
47540;DHT22;33280;52.152;21.052;2023-07-16T14:08:46;39.90;59.30
47540;DHT22;33280;52.152;21.052;2023-07-16T14:11:13;39.90;59.10
47540;DHT22;33280;52.152;21.052;2023-07-16T14:13:42;40.00;58.70
47540;DHT22;33280;52.152;21.052;2023-07-16T14:16:09;39.20;58.00
47540;DHT22;33280;52.152;21.052;2023-07-16T14:18:36;38.50;58.90
47540;DHT22;33280;52.152;21.052;2023-07-16T14:21:03;37.70;61.10
47540;DHT22;33280;52.152;21.052;2023-07-16T14:23:31;36.90;62.50
47540;DHT22;33280;52.152;21.052;2023-07-16T14:25:58;36.90;63.40
47540;DHT22;33280;52.152;21.052;2023-07-16T14:28:25;36.50;64.90
47540;DHT22;33280;52.152;21.052;2023-07-16T14:30:52;35.80;64.90
47540;DHT22;33280;52.152;21.052;2023-07-16T14:33:19;35.60;65.80
47540;DHT22;33280;52.152;21.052;2023-07-16T14:35:46;35.10;66.80
47540;DHT22;33280;52.152;21.052;2023-07-16T14:38:13;34.70;67.20
47540;DHT22;33280;52.152;21.052;2023-07-16T14:40:40;34.10;68.50
47540;DHT22;33280;52.152;21.052;2023-07-16T14:43:09;34.20;70.10
47540;DHT22;33280;52.152;21.052;2023-07-16T14:45:36;34.10;69.90
47540;DHT22;33280;52.152;21.052;2023-07-16T14:48:03;33.60;70.00
47540;DHT22;33280;52.152;21.052;2023-07-16T14:50:31;33.50;71.10
47540;DHT22;33280;52.152;21.052;2023-07-16T14:52:58;33.60;71.10
47540;DHT22;33280;52.152;21.052;2023-07-16T14:55:25;33.50;71.90
47540;DHT22;33280;52.152;21.052;2023-07-16T14:57:52;33.60;72.10
47540;DHT22;33280;52.152;21.052;2023-07-16T15:00:19;33.30;70.90
47540;DHT22;33280;52.152;21.052;2023-07-16T15:02:46;33.10;72.40
47540;DHT22;33280;52.152;21.052;2023-07-16T15:05:14;33.20;72.80
47540;DHT22;33280;52.152;21.052;2023-07-16T15:07:41;33.20;72.70
47540;DHT22;33280;52.152;21.052;2023-07-16T15:10:09;33.40;73.10
47540;DHT22;33280;52.152;21.052;2023-07-16T15:12:37;33.20;72.70
47540;DHT22;33280;52.152;21.052;2023-07-16T15:15:04;33.10;73.30
47540;DHT22;33280;52.152;21.052;2023-07-16T15:17:32;32.90;73.40
47540;DHT22;33280;52.152;21.052;2023-07-16T15:19:59;32.70;73.30
47540;DHT22;33280;52.152;21.052;2023-07-16T15:22:26;32.50;73.70
47540;DHT22;33280;52.152;21.052;2023-07-16T15:24:53;32.20;74.40
47540;DHT22;33280;52.152;21.052;2023-07-16T15:27:20;32.00;74.40
47540;DHT22;33280;52.152;21.052;2023-07-16T15:29:48;32.10;74.90
47540;DHT22;33280;52.152;21.052;2023-07-16T15:32:15;32.30;74.30
47540;DHT22;33280;52.152;21.052;2023-07-16T15:34:42;32.10;73.60
47540;DHT22;33280;52.152;21.052;2023-07-16T15:37:09;31.80;74.20
47540;DHT22;33280;52.152;21.052;2023-07-16T15:39:36;31.70;75.40
47540;DHT22;33280;52.152;21.052;2023-07-16T15:42:05;31.50;76.00
47540;DHT22;33280;52.152;21.052;2023-07-16T15:44:32;31.40;76.90
47540;DHT22;33280;52.152;21.052;2023-07-16T15:46:59;31.40;76.60
47540;DHT22;33280;52.152;21.052;2023-07-16T15:49:27;31.40;77.70
47540;DHT22;33280;52.152;21.052;2023-07-16T15:51:54;31.40;77.00
47540;DHT22;33280;52.152;21.052;2023-07-16T15:54:21;31.20;77.40
47540;DHT22;33280;52.152;21.052;2023-07-16T15:56:48;31.10;77.60
47540;DHT22;33280;52.152;21.052;2023-07-16T15:59:15;31.10;78.80
47540;DHT22;33280;52.152;21.052;2023-07-16T16:01:42;30.90;77.80
47540;DHT22;33280;52.152;21.052;2023-07-16T16:04:09;30.90;78.60
47540;DHT22;33280;52.152;21.052;2023-07-16T16:06:36;30.90;78.30
47540;DHT22;33280;52.152;21.052;2023-07-16T16:09:05;30.80;78.60
47540;DHT22;33280;52.152;21.052;2023-07-16T16:11:32;30.80;78.60
47540;DHT22;33280;52.152;21.052;2023-07-16T16:13:59;30.80;78.80
47540;DHT22;33280;52.152;21.052;2023-07-16T16:16:27;31.00;78.90
47540;DHT22;33280;52.152;21.052;2023-07-16T16:18:54;31.00;78.60
47540;DHT22;33280;52.152;21.052;2023-07-16T16:21:21;31.10;78.60
47540;DHT22;33280;52.152;21.052;2023-07-16T16:23:48;31.30;78.20
47540;DHT22;33280;52.152;21.052;2023-07-16T16:26:14;31.20;78.90
47540;DHT22;33280;52.152;21.052;2023-07-16T16:28:42;31.30;79.00
47540;DHT22;33280;52.152;21.052;2023-07-16T16:31:09;31.40;78.10
47540;DHT22;33280;52.152;21.052;2023-07-16T16:33:36;31.40;78.10
47540;DHT22;33280;52.152;21.052;2023-07-16T16:36:09;31.30;77.80
47540;DHT22;33280;52.152;21.052;2023-07-16T16:38:36;31.20;78.20
47540;DHT22;33280;52.152;21.052;2023-07-16T16:41:04;31.30;79.00
47540;DHT22;33280;52.152;21.052;2023-07-16T16:43:35;31.00;78.60
47540;DHT22;33280;52.152;21.052;2023-07-16T16:46:02;31.00;78.90
47540;DHT22;33280;52.152;21.052;2023-07-16T16:48:30;30.80;79.50
47540;DHT22;33280;52.152;21.052;2023-07-16T16:50:57;31.00;79.90
47540;DHT22;33280;52.152;21.052;2023-07-16T16:53:25;31.10;79.90
47540;DHT22;33280;52.152;21.052;2023-07-16T16:55:52;31.10;79.90
47540;DHT22;33280;52.152;21.052;2023-07-16T16:58:19;30.80;79.80
47540;DHT22;33280;52.152;21.052;2023-07-16T17:00:48;30.60;79.80
47540;DHT22;33280;52.152;21.052;2023-07-16T17:03:18;30.60;80.90
47540;DHT22;33280;52.152;21.052;2023-07-16T17:05:49;30.40;80.30
47540;DHT22;33280;52.152;21.052;2023-07-16T17:08:17;30.50;81.40
47540;DHT22;33280;52.152;21.052;2023-07-16T17:10:44;30.30;81.10
47540;DHT22;33280;52.152;21.052;2023-07-16T17:13:11;30.20;81.80
47540;DHT22;33280;52.152;21.052;2023-07-16T17:15:41;30.20;81.90
47540;DHT22;33280;52.152;21.052;2023-07-16T17:18:10;30.20;82.10
47540;DHT22;33280;52.152;21.052;2023-07-16T17:20:37;30.20;82.30
47540;DHT22;33280;52.152;21.052;2023-07-16T17:23:05;30.20;82.10
47540;DHT22;33280;52.152;21.052;2023-07-16T17:25:32;30.20;82.40
47540;DHT22;33280;52.152;21.052;2023-07-16T17:27:59;30.10;82.10
47540;DHT22;33280;52.152;21.052;2023-07-16T17:30:26;30.00;82.50
47540;DHT22;33280;52.152;21.052;2023-07-16T17:32:53;30.00;82.40
47540;DHT22;33280;52.152;21.052;2023-07-16T17:35:20;30.00;82.90
47540;DHT22;33280;52.152;21.052;2023-07-16T17:37:47;29.80;82.70
47540;DHT22;33280;52.152;21.052;2023-07-16T17:40:15;29.70;82.80
47540;DHT22;33280;52.152;21.052;2023-07-16T17:42:42;29.80;83.60
47540;DHT22;33280;52.152;21.052;2023-07-16T17:45:09;29.80;83.40
47540;DHT22;33280;52.152;21.052;2023-07-16T17:47:36;29.80;83.10
47540;DHT22;33280;52.152;21.052;2023-07-16T17:50:04;29.70;83.40
47540;DHT22;33280;52.152;21.052;2023-07-16T17:52:31;29.70;84.00
47540;DHT22;33280;52.152;21.052;2023-07-16T17:54:58;29.60;83.90
47540;DHT22;33280;52.152;21.052;2023-07-16T17:57:25;29.60;83.90
47540;DHT22;33280;52.152;21.052;2023-07-16T17:59:52;29.80;84.00
47540;DHT22;33280;52.152;21.052;2023-07-16T18:02:28;29.70;84.30
47540;DHT22;33280;52.152;21.052;2023-07-16T18:04:55;29.60;84.70
47540;DHT22;33280;52.152;21.052;2023-07-16T18:07:23;29.50;85.00
47540;DHT22;33280;52.152;21.052;2023-07-16T18:09:50;29.50;86.90
47540;DHT22;33280;52.152;21.052;2023-07-16T18:12:17;29.30;85.70
47540;DHT22;33280;52.152;21.052;2023-07-16T18:14:47;29.40;90.00
47540;DHT22;33280;52.152;21.052;2023-07-16T18:17:15;29.30;87.10
47540;DHT22;33280;52.152;21.052;2023-07-16T18:19:42;29.30;88.30
47540;DHT22;33280;52.152;21.052;2023-07-16T18:22:09;29.40;90.00
47540;DHT22;33280;52.152;21.052;2023-07-16T18:24:56;29.30;88.00
47540;DHT22;33280;52.152;21.052;2023-07-16T18:27:23;29.30;90.00
47540;DHT22;33280;52.152;21.052;2023-07-16T18:29:50;29.00;88.50
47540;DHT22;33280;52.152;21.052;2023-07-16T18:32:17;29.00;90.10
47540;DHT22;33280;52.152;21.052;2023-07-16T18:34:45;28.80;89.30
47540;DHT22;33280;52.152;21.052;2023-07-16T18:37:12;28.80;90.10
47540;DHT22;33280;52.152;21.052;2023-07-16T18:39:39;28.80;90.00
47540;DHT22;33280;52.152;21.052;2023-07-16T18:42:06;28.70;91.00
47540;DHT22;33280;52.152;21.052;2023-07-16T18:44:33;28.60;90.70
47540;DHT22;33280;52.152;21.052;2023-07-16T18:47:00;28.50;90.60
47540;DHT22;33280;52.152;21.052;2023-07-16T18:49:27;28.40;90.80
47540;DHT22;33280;52.152;21.052;2023-07-16T18:51:54;28.30;91.20
47540;DHT22;33280;52.152;21.052;2023-07-16T18:54:21;28.30;91.00
47540;DHT22;33280;52.152;21.052;2023-07-16T18:56:49;28.20;91.20
47540;DHT22;33280;52.152;21.052;2023-07-16T18:59:16;28.10;91.20
47540;DHT22;33280;52.152;21.052;2023-07-16T19:01:43;28.10;91.30
47540;DHT22;33280;52.152;21.052;2023-07-16T19:04:10;28.00;91.70
47540;DHT22;33280;52.152;21.052;2023-07-16T19:06:37;28.00;92.10
47540;DHT22;33280;52.152;21.052;2023-07-16T19:09:05;28.00;91.70
47540;DHT22;33280;52.152;21.052;2023-07-16T19:11:32;27.90;91.90
47540;DHT22;33280;52.152;21.052;2023-07-16T19:13:59;27.90;91.90
47540;DHT22;33280;52.152;21.052;2023-07-16T19:16:26;27.90;92.10
47540;DHT22;33280;52.152;21.052;2023-07-16T19:18:53;27.80;92.30
47540;DHT22;33280;52.152;21.052;2023-07-16T19:21:20;27.80;92.40
47540;DHT22;33280;52.152;21.052;2023-07-16T19:23:48;27.70;93.00
47540;DHT22;33280;52.152;21.052;2023-07-16T19:26:15;27.60;93.00
47540;DHT22;33280;52.152;21.052;2023-07-16T19:28:42;27.60;93.10
47540;DHT22;33280;52.152;21.052;2023-07-16T19:31:09;27.60;93.20
47540;DHT22;33280;52.152;21.052;2023-07-16T19:33:36;27.50;93.30
47540;DHT22;33280;52.152;21.052;2023-07-16T19:36:04;27.40;93.50
47540;DHT22;33280;52.152;21.052;2023-07-16T19:38:41;27.40;93.60
47540;DHT22;33280;52.152;21.052;2023-07-16T19:41:08;27.40;93.90
47540;DHT22;33280;52.152;21.052;2023-07-16T19:43:36;27.30;93.90
47540;DHT22;33280;52.152;21.052;2023-07-16T19:46:04;27.20;94.10
47540;DHT22;33280;52.152;21.052;2023-07-16T19:48:33;27.20;94.20
47540;DHT22;33280;52.152;21.052;2023-07-16T19:51:01;27.10;94.40
47540;DHT22;33280;52.152;21.052;2023-07-16T19:53:30;27.20;95.10
47540;DHT22;33280;52.152;21.052;2023-07-16T19:55:58;27.10;94.70
47540;DHT22;33280;52.152;21.052;2023-07-16T19:58:26;27.00;94.90
47540;DHT22;33280;52.152;21.052;2023-07-16T20:00:53;26.90;95.00
47540;DHT22;33280;52.152;21.052;2023-07-16T20:03:20;26.90;95.20
47540;DHT22;33280;52.152;21.052;2023-07-16T20:05:47;26.90;95.30
47540;DHT22;33280;52.152;21.052;2023-07-16T20:08:15;26.90;95.40
47540;DHT22;33280;52.152;21.052;2023-07-16T20:10:45;26.90;95.50
47540;DHT22;33280;52.152;21.052;2023-07-16T20:13:13;26.90;95.60
47540;DHT22;33280;52.152;21.052;2023-07-16T20:15:41;26.90;95.80
47540;DHT22;33280;52.152;21.052;2023-07-16T20:18:13;26.90;95.80
47540;DHT22;33280;52.152;21.052;2023-07-16T20:20:41;26.90;95.90
47540;DHT22;33280;52.152;21.052;2023-07-16T20:23:08;26.80;96.10
47540;DHT22;33280;52.152;21.052;2023-07-16T20:25:36;26.80;96.20
47540;DHT22;33280;52.152;21.052;2023-07-16T20:28:10;26.70;96.30
47540;DHT22;33280;52.152;21.052;2023-07-16T20:30:40;26.70;96.50
47540;DHT22;33280;52.152;21.052;2023-07-16T20:33:08;26.70;96.70
47540;DHT22;33280;52.152;21.052;2023-07-16T20:35:36;26.60;96.80
47540;DHT22;33280;52.152;21.052;2023-07-16T20:38:03;26.60;97.00
47540;DHT22;33280;52.152;21.052;2023-07-16T20:40:31;26.70;97.10
47540;DHT22;33280;52.152;21.052;2023-07-16T20:43:00;26.70;97.20
47540;DHT22;33280;52.152;21.052;2023-07-16T20:45:27;26.70;98.30
47540;DHT22;33280;52.152;21.052;2023-07-16T20:47:56;26.70;97.30
47540;DHT22;33280;52.152;21.052;2023-07-16T20:50:26;26.70;97.60
47540;DHT22;33280;52.152;21.052;2023-07-16T20:52:55;26.60;97.30
47540;DHT22;33280;52.152;21.052;2023-07-16T20:55:23;26.60;97.30
47540;DHT22;33280;52.152;21.052;2023-07-16T20:57:52;26.60;97.40
47540;DHT22;33280;52.152;21.052;2023-07-16T21:00:20;26.40;97.50
47540;DHT22;33280;52.152;21.052;2023-07-16T21:02:54;26.40;97.30
47540;DHT22;33280;52.152;21.052;2023-07-16T21:05:47;26.30;97.60
47540;DHT22;33280;52.152;21.052;2023-07-16T21:17:13;26.40;97.70
47540;DHT22;33280;52.152;21.052;2023-07-16T21:19:51;26.40;97.90
47540;DHT22;33280;52.152;21.052;2023-07-16T21:22:30;26.30;98.00
47540;DHT22;33280;52.152;21.052;2023-07-16T21:25:00;26.30;98.50
47540;DHT22;33280;52.152;21.052;2023-07-16T21:27:47;26.30;98.40
47540;DHT22;33280;52.152;21.052;2023-07-16T21:30:15;26.20;98.40
47540;DHT22;33280;52.152;21.052;2023-07-16T21:32:42;26.20;98.60
47540;DHT22;33280;52.152;21.052;2023-07-16T21:35:11;26.10;98.70
47540;DHT22;33280;52.152;21.052;2023-07-16T21:37:38;26.10;98.80
47540;DHT22;33280;52.152;21.052;2023-07-16T21:40:06;26.10;98.80
47540;DHT22;33280;52.152;21.052;2023-07-16T21:42:34;26.10;99.10
47540;DHT22;33280;52.152;21.052;2023-07-16T21:45:01;26.10;99.20
47540;DHT22;33280;52.152;21.052;2023-07-16T21:47:29;26.00;99.40
47540;DHT22;33280;52.152;21.052;2023-07-16T21:49:57;25.80;99.50
47540;DHT22;33280;52.152;21.052;2023-07-16T21:52:23;25.80;99.70
47540;DHT22;33280;52.152;21.052;2023-07-16T21:54:51;25.70;99.90
47540;DHT22;33280;52.152;21.052;2023-07-16T21:57:18;25.70;99.90
47540;DHT22;33280;52.152;21.052;2023-07-16T21:59:46;25.60;99.90
47540;DHT22;33280;52.152;21.052;2023-07-16T22:02:13;25.50;99.90
47540;DHT22;33280;52.152;21.052;2023-07-16T22:04:40;25.50;99.90
47540;DHT22;33280;52.152;21.052;2023-07-16T22:07:09;25.40;99.90
47540;DHT22;33280;52.152;21.052;2023-07-16T22:09:36;25.40;99.90
47540;DHT22;33280;52.152;21.052;2023-07-16T22:12:03;25.30;99.90
47540;DHT22;33280;52.152;21.052;2023-07-16T22:14:30;25.30;99.90
47540;DHT22;33280;52.152;21.052;2023-07-16T22:16:57;25.20;99.90
47540;DHT22;33280;52.152;21.052;2023-07-16T22:19:25;25.10;99.90
47540;DHT22;33280;52.152;21.052;2023-07-16T22:21:59;25.10;99.90
47540;DHT22;33280;52.152;21.052;2023-07-16T22:24:26;25.00;99.90
47540;DHT22;33280;52.152;21.052;2023-07-16T22:26:54;25.00;99.90
47540;DHT22;33280;52.152;21.052;2023-07-16T22:29:21;24.90;99.90
47540;DHT22;33280;52.152;21.052;2023-07-16T22:31:48;24.80;99.90
47540;DHT22;33280;52.152;21.052;2023-07-16T22:34:15;24.80;99.90
47540;DHT22;33280;52.152;21.052;2023-07-16T22:36:43;24.80;99.90
47540;DHT22;33280;52.152;21.052;2023-07-16T22:39:11;24.60;99.90
47540;DHT22;33280;52.152;21.052;2023-07-16T22:41:39;24.70;99.90
47540;DHT22;33280;52.152;21.052;2023-07-16T22:44:06;24.70;99.90
47540;DHT22;33280;52.152;21.052;2023-07-16T22:46:33;24.60;99.90
47540;DHT22;33280;52.152;21.052;2023-07-16T22:49:00;24.60;99.90
47540;DHT22;33280;52.152;21.052;2023-07-16T22:51:27;24.50;99.90
47540;DHT22;33280;52.152;21.052;2023-07-16T22:53:54;24.50;99.90
47540;DHT22;33280;52.152;21.052;2023-07-16T22:56:21;24.50;99.90
47540;DHT22;33280;52.152;21.052;2023-07-16T22:58:50;24.40;99.90
47540;DHT22;33280;52.152;21.052;2023-07-16T23:01:18;24.40;99.90
47540;DHT22;33280;52.152;21.052;2023-07-16T23:03:45;24.30;99.90
47540;DHT22;33280;52.152;21.052;2023-07-16T23:06:12;24.30;99.90
47540;DHT22;33280;52.152;21.052;2023-07-16T23:08:40;24.20;99.90
47540;DHT22;33280;52.152;21.052;2023-07-16T23:11:07;24.10;99.90
47540;DHT22;33280;52.152;21.052;2023-07-16T23:13:34;24.20;99.90
47540;DHT22;33280;52.152;21.052;2023-07-16T23:16:01;24.10;99.90
47540;DHT22;33280;52.152;21.052;2023-07-16T23:18:28;24.10;99.90
47540;DHT22;33280;52.152;21.052;2023-07-16T23:20:55;24.10;99.90
47540;DHT22;33280;52.152;21.052;2023-07-16T23:23:22;24.10;99.90
47540;DHT22;33280;52.152;21.052;2023-07-16T23:25:49;24.10;99.90
47540;DHT22;33280;52.152;21.052;2023-07-16T23:28:17;23.90;99.90
47540;DHT22;33280;52.152;21.052;2023-07-16T23:30:44;23.90;99.90
47540;DHT22;33280;52.152;21.052;2023-07-16T23:33:13;23.90;99.90
47540;DHT22;33280;52.152;21.052;2023-07-16T23:35:40;23.90;99.90
47540;DHT22;33280;52.152;21.052;2023-07-16T23:38:07;23.90;99.90
47540;DHT22;33280;52.152;21.052;2023-07-16T23:40:34;23.80;99.90
47540;DHT22;33280;52.152;21.052;2023-07-16T23:43:02;23.80;99.90
47540;DHT22;33280;52.152;21.052;2023-07-16T23:45:29;23.70;99.90
47540;DHT22;33280;52.152;21.052;2023-07-16T23:47:56;23.70;99.90
47540;DHT22;33280;52.152;21.052;2023-07-16T23:50:23;23.60;99.90
47540;DHT22;33280;52.152;21.052;2023-07-16T23:52:50;23.70;99.90
47540;DHT22;33280;52.152;21.052;2023-07-16T23:55:18;23.60;99.90
47540;DHT22;33280;52.152;21.052;2023-07-16T23:57:45;23.60;99.90
